92WI weather

Knight Aire Airport
Merrill, Wisconsin, United States

Public forecast

Using degrees Fahrenheit for public forecast. Weather courtesy of forecast.io.

METAR (pilot weather report)

Closest report is Merrill Municipal Airport, 6.6 nm (12.2 km) SSW. Retrieved 2019/08/22 05:35 UTC (0 seconds ago):

KRRL 220535Z AUTO 00000KT 10SM CLR 09/09 A3005 RMK AO2 T00870087 TSNO

TAF (pilot weather forecast)

Forecast is more than 12 hours old.

Closest forecast is Rhinelander Oneida County Airport, 21.4 nm (39.6 km) NNE. Retrieved 2019/08/21 00:39 UTC (1 day ago):

TAF KRHI 212336Z 2200/2224 31006KT P6SM SCT050 FM220200 VRB03KT P6SM SCT250 FM220400 VRB03KT P6SM BKN060 FM221600 33006KT P6SM SCT035 BKN060